sensor_id;sensor_type;location;lat;lon;timestamp;temperature;humidity
28845;DHT22;15976;47.938;7.758;2023-05-09T00:01:25;17.40;80.50
28845;DHT22;15976;47.938;7.758;2023-05-09T00:03:56;17.40;80.50
28845;DHT22;15976;47.938;7.758;2023-05-09T00:06:23;17.40;80.50
28845;DHT22;15976;47.938;7.758;2023-05-09T00:08:51;17.40;80.40
28845;DHT22;15976;47.938;7.758;2023-05-09T00:11:21;17.30;80.60
28845;DHT22;15976;47.938;7.758;2023-05-09T00:13:49;17.30;80.70
28845;DHT22;15976;47.938;7.758;2023-05-09T00:16:17;17.30;80.70
28845;DHT22;15976;47.938;7.758;2023-05-09T00:18:44;17.30;80.60
28845;DHT22;15976;47.938;7.758;2023-05-09T00:21:11;17.30;80.60
28845;DHT22;15976;47.938;7.758;2023-05-09T00:23:38;17.30;80.30
28845;DHT22;15976;47.938;7.758;2023-05-09T00:26:05;17.20;80.30
28845;DHT22;15976;47.938;7.758;2023-05-09T00:28:32;17.20;80.40
28845;DHT22;15976;47.938;7.758;2023-05-09T00:30:59;17.20;80.70
28845;DHT22;15976;47.938;7.758;2023-05-09T00:33:26;17.20;80.80
28845;DHT22;15976;47.938;7.758;2023-05-09T00:35:53;17.10;80.80
28845;DHT22;15976;47.938;7.758;2023-05-09T00:38:22;17.10;81.10
28845;DHT22;15976;47.938;7.758;2023-05-09T00:40:49;17.00;81.40
28845;DHT22;15976;47.938;7.758;2023-05-09T00:43:16;17.00;81.60
28845;DHT22;15976;47.938;7.758;2023-05-09T00:45:43;17.00;81.80
28845;DHT22;15976;47.938;7.758;2023-05-09T00:48:11;16.90;81.90
28845;DHT22;15976;47.938;7.758;2023-05-09T00:50:38;16.90;82.10
28845;DHT22;15976;47.938;7.758;2023-05-09T00:53:05;16.80;82.10
28845;DHT22;15976;47.938;7.758;2023-05-09T00:55:33;16.80;82.30
28845;DHT22;15976;47.938;7.758;2023-05-09T00:58:00;16.70;82.30
28845;DHT22;15976;47.938;7.758;2023-05-09T01:00:28;16.70;82.20
28845;DHT22;15976;47.938;7.758;2023-05-09T01:02:56;16.60;82.20
28845;DHT22;15976;47.938;7.758;2023-05-09T01:05:28;16.60;82.20
28845;DHT22;15976;47.938;7.758;2023-05-09T01:08:06;16.50;82.10
28845;DHT22;15976;47.938;7.758;2023-05-09T01:10:54;16.40;82.10
28845;DHT22;15976;47.938;7.758;2023-05-09T01:16:00;16.30;82.40
28845;DHT22;15976;47.938;7.758;2023-05-09T01:21:07;16.20;82.60
28845;DHT22;15976;47.938;7.758;2023-05-09T01:31:27;16.10;83.10
28845;DHT22;15976;47.938;7.758;2023-05-09T01:33:57;16.10;83.00
28845;DHT22;15976;47.938;7.758;2023-05-09T01:36:29;16.10;83.00
28845;DHT22;15976;47.938;7.758;2023-05-09T01:38:57;16.10;83.10
28845;DHT22;15976;47.938;7.758;2023-05-09T01:41:25;16.10;83.10
28845;DHT22;15976;47.938;7.758;2023-05-09T01:43:57;16.10;83.10
28845;DHT22;15976;47.938;7.758;2023-05-09T01:46:25;16.20;83.10
28845;DHT22;15976;47.938;7.758;2023-05-09T01:48:53;16.10;82.90
28845;DHT22;15976;47.938;7.758;2023-05-09T01:51:22;16.20;83.00
28845;DHT22;15976;47.938;7.758;2023-05-09T01:53:51;16.20;83.00
28845;DHT22;15976;47.938;7.758;2023-05-09T01:56:21;16.10;82.90
28845;DHT22;15976;47.938;7.758;2023-05-09T01:58:50;16.10;83.00
28845;DHT22;15976;47.938;7.758;2023-05-09T02:01:18;16.10;83.00
28845;DHT22;15976;47.938;7.758;2023-05-09T02:03:50;16.10;83.10
28845;DHT22;15976;47.938;7.758;2023-05-09T02:06:19;16.10;83.30
28845;DHT22;15976;47.938;7.758;2023-05-09T02:08:47;16.10;83.40
28845;DHT22;15976;47.938;7.758;2023-05-09T02:11:15;16.00;83.30
28845;DHT22;15976;47.938;7.758;2023-05-09T02:13:42;16.00;83.60
28845;DHT22;15976;47.938;7.758;2023-05-09T02:16:09;16.00;83.80
28845;DHT22;15976;47.938;7.758;2023-05-09T02:18:38;15.90;83.70
28845;DHT22;15976;47.938;7.758;2023-05-09T02:21:05;15.90;83.90
28845;DHT22;15976;47.938;7.758;2023-05-09T02:23:32;15.90;83.90
28845;DHT22;15976;47.938;7.758;2023-05-09T02:26:00;15.90;83.80
28845;DHT22;15976;47.938;7.758;2023-05-09T02:28:28;15.80;83.70
28845;DHT22;15976;47.938;7.758;2023-05-09T02:30:57;15.80;83.80
28845;DHT22;15976;47.938;7.758;2023-05-09T02:33:26;15.80;83.80
28845;DHT22;15976;47.938;7.758;2023-05-09T02:35:54;15.80;83.80
28845;DHT22;15976;47.938;7.758;2023-05-09T02:38:22;15.80;84.60
28845;DHT22;15976;47.938;7.758;2023-05-09T02:40:50;15.80;84.00
28845;DHT22;15976;47.938;7.758;2023-05-09T02:43:18;15.70;84.00
28845;DHT22;15976;47.938;7.758;2023-05-09T02:45:45;15.70;84.00
28845;DHT22;15976;47.938;7.758;2023-05-09T02:48:12;15.60;83.90
28845;DHT22;15976;47.938;7.758;2023-05-09T02:50:39;15.60;84.00
28845;DHT22;15976;47.938;7.758;2023-05-09T02:53:08;15.50;84.10
28845;DHT22;15976;47.938;7.758;2023-05-09T02:55:38;15.50;84.00
28845;DHT22;15976;47.938;7.758;2023-05-09T02:58:06;15.50;84.00
28845;DHT22;15976;47.938;7.758;2023-05-09T03:00:42;15.40;84.10
28845;DHT22;15976;47.938;7.758;2023-05-09T03:03:10;15.40;84.30
28845;DHT22;15976;47.938;7.758;2023-05-09T03:05:37;15.30;84.40
28845;DHT22;15976;47.938;7.758;2023-05-09T03:08:04;15.40;84.50
28845;DHT22;15976;47.938;7.758;2023-05-09T03:10:33;15.30;84.60
28845;DHT22;15976;47.938;7.758;2023-05-09T03:13:00;15.30;84.60
28845;DHT22;15976;47.938;7.758;2023-05-09T03:15:27;15.30;84.70
28845;DHT22;15976;47.938;7.758;2023-05-09T03:17:56;15.30;84.80
28845;DHT22;15976;47.938;7.758;2023-05-09T03:20:25;15.30;84.80
28845;DHT22;15976;47.938;7.758;2023-05-09T03:22:52;15.30;84.90
28845;DHT22;15976;47.938;7.758;2023-05-09T03:25:20;15.30;84.80
28845;DHT22;15976;47.938;7.758;2023-05-09T03:27:47;15.30;84.80
28845;DHT22;15976;47.938;7.758;2023-05-09T03:30:15;15.30;84.80
28845;DHT22;15976;47.938;7.758;2023-05-09T03:32:44;15.30;84.70
28845;DHT22;15976;47.938;7.758;2023-05-09T03:35:11;15.30;84.70
28845;DHT22;15976;47.938;7.758;2023-05-09T03:37:39;15.30;84.70
28845;DHT22;15976;47.938;7.758;2023-05-09T03:40:08;15.30;84.80
28845;DHT22;15976;47.938;7.758;2023-05-09T03:42:42;15.40;84.70
28845;DHT22;15976;47.938;7.758;2023-05-09T03:45:09;15.40;84.50
28845;DHT22;15976;47.938;7.758;2023-05-09T03:47:36;15.40;84.50
28845;DHT22;15976;47.938;7.758;2023-05-09T03:50:05;15.40;84.40
28845;DHT22;15976;47.938;7.758;2023-05-09T03:52:33;15.40;84.40
28845;DHT22;15976;47.938;7.758;2023-05-09T03:55:05;15.40;84.40
28845;DHT22;15976;47.938;7.758;2023-05-09T03:57:34;15.50;84.30
28845;DHT22;15976;47.938;7.758;2023-05-09T04:00:03;15.50;84.00
28845;DHT22;15976;47.938;7.758;2023-05-09T04:02:39;15.50;84.00
28845;DHT22;15976;47.938;7.758;2023-05-09T04:05:11;15.50;83.90
28845;DHT22;15976;47.938;7.758;2023-05-09T04:07:39;15.50;83.80
28845;DHT22;15976;47.938;7.758;2023-05-09T04:10:07;15.60;83.90
28845;DHT22;15976;47.938;7.758;2023-05-09T04:12:34;15.60;83.80
28845;DHT22;15976;47.938;7.758;2023-05-09T04:15:01;15.60;83.60
28845;DHT22;15976;47.938;7.758;2023-05-09T04:17:29;15.60;83.40
28845;DHT22;15976;47.938;7.758;2023-05-09T04:19:57;15.70;83.40
28845;DHT22;15976;47.938;7.758;2023-05-09T04:22:24;15.70;83.40
28845;DHT22;15976;47.938;7.758;2023-05-09T04:24:51;15.80;83.40
28845;DHT22;15976;47.938;7.758;2023-05-09T04:27:19;15.80;83.30
28845;DHT22;15976;47.938;7.758;2023-05-09T04:29:46;15.80;83.20
28845;DHT22;15976;47.938;7.758;2023-05-09T04:32:15;15.90;83.10
28845;DHT22;15976;47.938;7.758;2023-05-09T04:34:42;15.90;83.00
28845;DHT22;15976;47.938;7.758;2023-05-09T04:37:16;15.90;82.90
28845;DHT22;15976;47.938;7.758;2023-05-09T04:39:44;16.00;82.90
28845;DHT22;15976;47.938;7.758;2023-05-09T04:42:20;16.00;82.70
28845;DHT22;15976;47.938;7.758;2023-05-09T04:44:47;16.10;82.60
28845;DHT22;15976;47.938;7.758;2023-05-09T04:47:15;16.10;82.50
28845;DHT22;15976;47.938;7.758;2023-05-09T04:49:42;16.10;82.60
28845;DHT22;15976;47.938;7.758;2023-05-09T04:52:09;16.10;82.50
28845;DHT22;15976;47.938;7.758;2023-05-09T04:54:36;16.20;82.50
28845;DHT22;15976;47.938;7.758;2023-05-09T04:57:04;16.20;82.30
28845;DHT22;15976;47.938;7.758;2023-05-09T04:59:46;16.30;82.20
28845;DHT22;15976;47.938;7.758;2023-05-09T05:02:14;16.40;82.10
28845;DHT22;15976;47.938;7.758;2023-05-09T05:04:42;16.40;81.90
28845;DHT22;15976;47.938;7.758;2023-05-09T05:07:09;16.40;81.80
28845;DHT22;15976;47.938;7.758;2023-05-09T05:09:37;16.50;81.60
28845;DHT22;15976;47.938;7.758;2023-05-09T05:12:04;16.50;81.60
28845;DHT22;15976;47.938;7.758;2023-05-09T05:14:36;16.60;81.50
28845;DHT22;15976;47.938;7.758;2023-05-09T05:17:05;16.60;81.30
28845;DHT22;15976;47.938;7.758;2023-05-09T05:19:33;16.70;81.20
28845;DHT22;15976;47.938;7.758;2023-05-09T05:22:01;16.70;81.10
28845;DHT22;15976;47.938;7.758;2023-05-09T05:24:30;16.80;80.90
28845;DHT22;15976;47.938;7.758;2023-05-09T05:26:57;16.80;81.00
28845;DHT22;15976;47.938;7.758;2023-05-09T05:29:26;16.90;81.80
28845;DHT22;15976;47.938;7.758;2023-05-09T05:31:53;16.90;81.00
28845;DHT22;15976;47.938;7.758;2023-05-09T05:34:22;17.00;81.10
28845;DHT22;15976;47.938;7.758;2023-05-09T05:36:50;17.00;80.80
28845;DHT22;15976;47.938;7.758;2023-05-09T05:39:19;17.00;80.70
28845;DHT22;15976;47.938;7.758;2023-05-09T05:41:47;17.10;80.80
28845;DHT22;15976;47.938;7.758;2023-05-09T05:44:15;17.10;80.60
28845;DHT22;15976;47.938;7.758;2023-05-09T05:46:42;17.20;80.40
28845;DHT22;15976;47.938;7.758;2023-05-09T05:49:09;17.20;80.10
28845;DHT22;15976;47.938;7.758;2023-05-09T05:51:36;17.20;79.90
28845;DHT22;15976;47.938;7.758;2023-05-09T05:54:05;17.20;79.80
28845;DHT22;15976;47.938;7.758;2023-05-09T05:56:33;17.30;79.70
28845;DHT22;15976;47.938;7.758;2023-05-09T05:59:00;17.30;79.50
28845;DHT22;15976;47.938;7.758;2023-05-09T06:01:28;17.30;79.40
28845;DHT22;15976;47.938;7.758;2023-05-09T06:03:56;17.30;79.30
28845;DHT22;15976;47.938;7.758;2023-05-09T06:06:27;17.40;79.50
28845;DHT22;15976;47.938;7.758;2023-05-09T06:08:55;17.40;79.50
28845;DHT22;15976;47.938;7.758;2023-05-09T06:11:23;17.40;79.50
28845;DHT22;15976;47.938;7.758;2023-05-09T06:13:50;17.40;79.50
28845;DHT22;15976;47.938;7.758;2023-05-09T06:16:18;17.50;79.30
28845;DHT22;15976;47.938;7.758;2023-05-09T06:18:50;17.60;79.20
28845;DHT22;15976;47.938;7.758;2023-05-09T06:21:20;17.70;78.70
28845;DHT22;15976;47.938;7.758;2023-05-09T06:23:47;17.70;78.40
28845;DHT22;15976;47.938;7.758;2023-05-09T06:26:34;17.70;78.20
28845;DHT22;15976;47.938;7.758;2023-05-09T06:29:03;17.90;77.80
28845;DHT22;15976;47.938;7.758;2023-05-09T06:31:31;17.90;77.50
28845;DHT22;15976;47.938;7.758;2023-05-09T06:34:01;18.00;77.50
28845;DHT22;15976;47.938;7.758;2023-05-09T06:36:28;18.10;77.40
28845;DHT22;15976;47.938;7.758;2023-05-09T06:38:55;18.30;77.40
28845;DHT22;15976;47.938;7.758;2023-05-09T06:41:22;18.30;77.00
28845;DHT22;15976;47.938;7.758;2023-05-09T06:43:49;18.50;76.90
28845;DHT22;15976;47.938;7.758;2023-05-09T06:46:17;18.60;76.40
28845;DHT22;15976;47.938;7.758;2023-05-09T06:48:44;18.70;75.90
28845;DHT22;15976;47.938;7.758;2023-05-09T06:51:11;18.70;75.40
28845;DHT22;15976;47.938;7.758;2023-05-09T06:53:38;18.80;75.20
28845;DHT22;15976;47.938;7.758;2023-05-09T06:56:05;19.00;74.90
28845;DHT22;15976;47.938;7.758;2023-05-09T06:58:32;19.00;74.60
28845;DHT22;15976;47.938;7.758;2023-05-09T07:00:59;19.10;74.20
28845;DHT22;15976;47.938;7.758;2023-05-09T07:03:26;19.20;73.60
28845;DHT22;15976;47.938;7.758;2023-05-09T07:05:53;19.20;73.20
28845;DHT22;15976;47.938;7.758;2023-05-09T07:08:22;19.30;72.80
28845;DHT22;15976;47.938;7.758;2023-05-09T07:10:49;19.40;72.30
28845;DHT22;15976;47.938;7.758;2023-05-09T07:13:16;19.50;72.40
28845;DHT22;15976;47.938;7.758;2023-05-09T07:15:43;19.50;72.30
28845;DHT22;15976;47.938;7.758;2023-05-09T07:18:10;19.60;72.20
28845;DHT22;15976;47.938;7.758;2023-05-09T07:20:37;19.70;71.80
28845;DHT22;15976;47.938;7.758;2023-05-09T07:23:04;19.80;71.00
28845;DHT22;15976;47.938;7.758;2023-05-09T07:25:32;19.90;70.50
28845;DHT22;15976;47.938;7.758;2023-05-09T07:27:58;19.90;70.00
28845;DHT22;15976;47.938;7.758;2023-05-09T07:30:26;20.00;70.00
28845;DHT22;15976;47.938;7.758;2023-05-09T07:32:53;20.00;70.00
28845;DHT22;15976;47.938;7.758;2023-05-09T07:35:20;20.10;70.20
28845;DHT22;15976;47.938;7.758;2023-05-09T07:37:47;20.20;69.70
28845;DHT22;15976;47.938;7.758;2023-05-09T07:40:14;20.20;69.30
28845;DHT22;15976;47.938;7.758;2023-05-09T07:42:41;20.30;68.80
28845;DHT22;15976;47.938;7.758;2023-05-09T07:45:15;20.40;68.50
28845;DHT22;15976;47.938;7.758;2023-05-09T07:47:43;20.40;68.10
28845;DHT22;15976;47.938;7.758;2023-05-09T07:50:10;20.40;67.70
28845;DHT22;15976;47.938;7.758;2023-05-09T07:52:37;20.50;67.60
28845;DHT22;15976;47.938;7.758;2023-05-09T07:55:04;20.60;67.60
28845;DHT22;15976;47.938;7.758;2023-05-09T07:57:32;20.70;67.80
28845;DHT22;15976;47.938;7.758;2023-05-09T07:59:59;20.90;67.50
28845;DHT22;15976;47.938;7.758;2023-05-09T08:02:26;21.10;66.80
28845;DHT22;15976;47.938;7.758;2023-05-09T08:04:53;21.30;66.30
28845;DHT22;15976;47.938;7.758;2023-05-09T08:07:20;21.50;65.80
28845;DHT22;15976;47.938;7.758;2023-05-09T08:09:47;21.70;65.30
28845;DHT22;15976;47.938;7.758;2023-05-09T08:12:14;22.00;64.20
28845;DHT22;15976;47.938;7.758;2023-05-09T08:14:41;22.30;63.30
28845;DHT22;15976;47.938;7.758;2023-05-09T08:17:08;22.50;62.80
28845;DHT22;15976;47.938;7.758;2023-05-09T08:19:35;22.90;61.50
28845;DHT22;15976;47.938;7.758;2023-05-09T08:22:02;23.20;60.40
28845;DHT22;15976;47.938;7.758;2023-05-09T08:24:29;23.50;59.30
28845;DHT22;15976;47.938;7.758;2023-05-09T08:26:58;23.60;58.50
28845;DHT22;15976;47.938;7.758;2023-05-09T08:29:25;23.80;57.90
28845;DHT22;15976;47.938;7.758;2023-05-09T08:31:52;23.90;57.50
28845;DHT22;15976;47.938;7.758;2023-05-09T08:34:19;24.30;56.80
28845;DHT22;15976;47.938;7.758;2023-05-09T08:36:46;24.60;55.90
28845;DHT22;15976;47.938;7.758;2023-05-09T08:39:14;24.60;55.00
28845;DHT22;15976;47.938;7.758;2023-05-09T08:41:41;24.90;54.30
28845;DHT22;15976;47.938;7.758;2023-05-09T08:44:09;25.30;53.70
28845;DHT22;15976;47.938;7.758;2023-05-09T08:46:38;25.70;52.90
28845;DHT22;15976;47.938;7.758;2023-05-09T08:49:08;26.20;52.20
28845;DHT22;15976;47.938;7.758;2023-05-09T08:51:35;26.40;51.30
28845;DHT22;15976;47.938;7.758;2023-05-09T08:54:04;26.30;50.70
28845;DHT22;15976;47.938;7.758;2023-05-09T08:56:31;26.10;51.40
28845;DHT22;15976;47.938;7.758;2023-05-09T08:58:58;26.20;51.00
28845;DHT22;15976;47.938;7.758;2023-05-09T09:01:26;26.10;50.70
28845;DHT22;15976;47.938;7.758;2023-05-09T09:03:55;26.00;50.80
28845;DHT22;15976;47.938;7.758;2023-05-09T09:06:22;25.90;51.00
28845;DHT22;15976;47.938;7.758;2023-05-09T09:08:53;26.10;51.10
28845;DHT22;15976;47.938;7.758;2023-05-09T09:11:20;26.10;50.60
28845;DHT22;15976;47.938;7.758;2023-05-09T09:13:50;26.20;50.70
28845;DHT22;15976;47.938;7.758;2023-05-09T09:16:20;26.50;50.20
28845;DHT22;15976;47.938;7.758;2023-05-09T09:18:51;26.90;49.80
28845;DHT22;15976;47.938;7.758;2023-05-09T09:21:19;27.00;49.20
28845;DHT22;15976;47.938;7.758;2023-05-09T09:23:47;26.90;49.00
28845;DHT22;15976;47.938;7.758;2023-05-09T09:26:14;26.70;49.40
28845;DHT22;15976;47.938;7.758;2023-05-09T09:28:42;26.70;49.60
28845;DHT22;15976;47.938;7.758;2023-05-09T09:33:47;27.20;48.80
28845;DHT22;15976;47.938;7.758;2023-05-09T09:36:14;27.60;47.90
28845;DHT22;15976;47.938;7.758;2023-05-09T09:38:42;27.70;46.80
28845;DHT22;15976;47.938;7.758;2023-05-09T09:41:11;27.70;45.90
28845;DHT22;15976;47.938;7.758;2023-05-09T09:43:44;27.80;46.40
28845;DHT22;15976;47.938;7.758;2023-05-09T09:46:13;27.80;46.50
28845;DHT22;15976;47.938;7.758;2023-05-09T09:48:45;28.00;46.40
28845;DHT22;15976;47.938;7.758;2023-05-09T09:51:16;28.30;45.70
28845;DHT22;15976;47.938;7.758;2023-05-09T09:53:44;28.50;45.10
28845;DHT22;15976;47.938;7.758;2023-05-09T09:56:12;28.80;45.30
28845;DHT22;15976;47.938;7.758;2023-05-09T09:58:39;29.10;44.70
28845;DHT22;15976;47.938;7.758;2023-05-09T10:01:11;29.20;44.40
28845;DHT22;15976;47.938;7.758;2023-05-09T10:03:44;29.10;43.80
28845;DHT22;15976;47.938;7.758;2023-05-09T10:06:13;28.90;44.20
28845;DHT22;15976;47.938;7.758;2023-05-09T10:08:43;29.00;44.80
28845;DHT22;15976;47.938;7.758;2023-05-09T10:11:12;29.30;44.40
28845;DHT22;15976;47.938;7.758;2023-05-09T10:13:40;29.60;42.80
28845;DHT22;15976;47.938;7.758;2023-05-09T10:16:08;29.70;42.40
28845;DHT22;15976;47.938;7.758;2023-05-09T10:18:36;29.90;42.20
28845;DHT22;15976;47.938;7.758;2023-05-09T10:21:07;29.80;41.70
28845;DHT22;15976;47.938;7.758;2023-05-09T10:23:36;29.50;41.90
28845;DHT22;15976;47.938;7.758;2023-05-09T10:26:16;29.10;42.60
28845;DHT22;15976;47.938;7.758;2023-05-09T10:28:45;28.80;43.10
28845;DHT22;15976;47.938;7.758;2023-05-09T10:31:21;28.60;43.50
28845;DHT22;15976;47.938;7.758;2023-05-09T10:33:50;28.30;43.50
28845;DHT22;15976;47.938;7.758;2023-05-09T10:36:19;28.40;44.00
28845;DHT22;15976;47.938;7.758;2023-05-09T10:38:47;28.70;43.40
28845;DHT22;15976;47.938;7.758;2023-05-09T10:41:19;28.90;42.30
28845;DHT22;15976;47.938;7.758;2023-05-09T10:43:47;29.00;41.90
28845;DHT22;15976;47.938;7.758;2023-05-09T10:46:15;29.00;41.60
28845;DHT22;15976;47.938;7.758;2023-05-09T10:48:42;29.20;41.50
28845;DHT22;15976;47.938;7.758;2023-05-09T10:51:10;29.30;41.10
28845;DHT22;15976;47.938;7.758;2023-05-09T10:53:49;29.20;41.40
28845;DHT22;15976;47.938;7.758;2023-05-09T10:56:31;29.20;41.70
28845;DHT22;15976;47.938;7.758;2023-05-09T10:58:58;29.20;41.50
28845;DHT22;15976;47.938;7.758;2023-05-09T11:01:29;29.20;41.80
28845;DHT22;15976;47.938;7.758;2023-05-09T11:03:59;29.40;41.70
28845;DHT22;15976;47.938;7.758;2023-05-09T11:09:31;29.60;40.90
28845;DHT22;15976;47.938;7.758;2023-05-09T11:12:13;29.60;40.60
28845;DHT22;15976;47.938;7.758;2023-05-09T11:14:47;29.60;40.70
28845;DHT22;15976;47.938;7.758;2023-05-09T11:27:26;29.70;40.10
28845;DHT22;15976;47.938;7.758;2023-05-09T11:29:58;29.90;40.10
28845;DHT22;15976;47.938;7.758;2023-05-09T11:32:32;29.70;40.10
28845;DHT22;15976;47.938;7.758;2023-05-09T11:35:06;29.60;39.90
28845;DHT22;15976;47.938;7.758;2023-05-09T11:38:00;29.70;40.40
28845;DHT22;15976;47.938;7.758;2023-05-09T11:40:27;29.90;40.40
28845;DHT22;15976;47.938;7.758;2023-05-09T11:42:57;30.00;39.60
28845;DHT22;15976;47.938;7.758;2023-05-09T11:45:31;29.90;39.10
28845;DHT22;15976;47.938;7.758;2023-05-09T11:47:59;29.70;39.30
28845;DHT22;15976;47.938;7.758;2023-05-09T11:50:29;29.80;39.30
28845;DHT22;15976;47.938;7.758;2023-05-09T11:52:56;29.70;39.00
28845;DHT22;15976;47.938;7.758;2023-05-09T11:55:24;29.70;39.40
28845;DHT22;15976;47.938;7.758;2023-05-09T11:57:52;29.80;39.40
28845;DHT22;15976;47.938;7.758;2023-05-09T12:00:22;30.00;39.20
28845;DHT22;15976;47.938;7.758;2023-05-09T12:02:50;30.00;39.10
28845;DHT22;15976;47.938;7.758;2023-05-09T12:05:20;30.10;39.40
28845;DHT22;15976;47.938;7.758;2023-05-09T12:07:48;30.20;39.00
28845;DHT22;15976;47.938;7.758;2023-05-09T12:10:19;30.40;38.60
28845;DHT22;15976;47.938;7.758;2023-05-09T12:12:48;30.50;38.10
28845;DHT22;15976;47.938;7.758;2023-05-09T12:15:16;30.30;37.60
28845;DHT22;15976;47.938;7.758;2023-05-09T12:17:44;30.30;38.30
28845;DHT22;15976;47.938;7.758;2023-05-09T12:20:14;30.50;38.90
28845;DHT22;15976;47.938;7.758;2023-05-09T12:22:42;30.80;38.80
28845;DHT22;15976;47.938;7.758;2023-05-09T12:25:10;30.90;38.10
28845;DHT22;15976;47.938;7.758;2023-05-09T12:27:39;30.90;37.80
28845;DHT22;15976;47.938;7.758;2023-05-09T12:30:07;30.90;37.90
28845;DHT22;15976;47.938;7.758;2023-05-09T12:32:37;31.00;37.90
28845;DHT22;15976;47.938;7.758;2023-05-09T12:35:07;31.30;37.40
28845;DHT22;15976;47.938;7.758;2023-05-09T12:37:35;31.40;36.80
28845;DHT22;15976;47.938;7.758;2023-05-09T12:40:04;31.70;36.70
28845;DHT22;15976;47.938;7.758;2023-05-09T12:42:33;31.90;36.50
28845;DHT22;15976;47.938;7.758;2023-05-09T12:45:01;32.00;35.90
28845;DHT22;15976;47.938;7.758;2023-05-09T12:47:29;32.10;35.80
28845;DHT22;15976;47.938;7.758;2023-05-09T12:49:58;32.00;35.20
28845;DHT22;15976;47.938;7.758;2023-05-09T12:52:39;31.70;35.50
28845;DHT22;15976;47.938;7.758;2023-05-09T12:55:26;31.30;35.60
28845;DHT22;15976;47.938;7.758;2023-05-09T12:57:58;31.00;36.20
28845;DHT22;15976;47.938;7.758;2023-05-09T13:00:26;30.70;36.40
28845;DHT22;15976;47.938;7.758;2023-05-09T13:02:53;30.50;36.80
28845;DHT22;15976;47.938;7.758;2023-05-09T13:05:21;30.30;37.10
28845;DHT22;15976;47.938;7.758;2023-05-09T13:07:50;30.00;37.50
28845;DHT22;15976;47.938;7.758;2023-05-09T13:10:25;29.70;37.80
28845;DHT22;15976;47.938;7.758;2023-05-09T13:12:54;29.40;38.40
28845;DHT22;15976;47.938;7.758;2023-05-09T13:15:22;29.10;39.00
28845;DHT22;15976;47.938;7.758;2023-05-09T13:17:50;28.80;39.40
28845;DHT22;15976;47.938;7.758;2023-05-09T13:20:18;28.40;39.60
28845;DHT22;15976;47.938;7.758;2023-05-09T13:22:45;28.00;40.20
28845;DHT22;15976;47.938;7.758;2023-05-09T13:25:13;27.70;40.80
28845;DHT22;15976;47.938;7.758;2023-05-09T13:27:41;27.40;40.80
28845;DHT22;15976;47.938;7.758;2023-05-09T13:30:09;27.20;41.30
28845;DHT22;15976;47.938;7.758;2023-05-09T13:32:36;27.00;41.80
28845;DHT22;15976;47.938;7.758;2023-05-09T13:35:03;27.00;42.00
28845;DHT22;15976;47.938;7.758;2023-05-09T13:37:33;26.90;42.10
28845;DHT22;15976;47.938;7.758;2023-05-09T13:40:01;26.70;42.50
28845;DHT22;15976;47.938;7.758;2023-05-09T13:42:28;26.50;42.50
28845;DHT22;15976;47.938;7.758;2023-05-09T13:44:55;26.30;42.60
28845;DHT22;15976;47.938;7.758;2023-05-09T13:47:22;26.30;42.90
28845;DHT22;15976;47.938;7.758;2023-05-09T13:49:49;26.20;42.90
28845;DHT22;15976;47.938;7.758;2023-05-09T13:52:16;26.10;43.00
28845;DHT22;15976;47.938;7.758;2023-05-09T13:54:43;26.10;43.00
28845;DHT22;15976;47.938;7.758;2023-05-09T13:57:10;26.00;43.20
28845;DHT22;15976;47.938;7.758;2023-05-09T13:59:37;26.00;43.40
28845;DHT22;15976;47.938;7.758;2023-05-09T14:02:06;25.80;43.80
28845;DHT22;15976;47.938;7.758;2023-05-09T14:04:33;25.70;44.50
28845;DHT22;15976;47.938;7.758;2023-05-09T14:07:00;25.60;45.10
28845;DHT22;15976;47.938;7.758;2023-05-09T14:09:28;25.50;45.30
28845;DHT22;15976;47.938;7.758;2023-05-09T14:11:55;25.50;45.80
28845;DHT22;15976;47.938;7.758;2023-05-09T14:14:23;25.40;45.80
28845;DHT22;15976;47.938;7.758;2023-05-09T14:16:50;25.20;45.90
28845;DHT22;15976;47.938;7.758;2023-05-09T14:19:18;25.10;46.20
28845;DHT22;15976;47.938;7.758;2023-05-09T14:21:45;25.00;46.60
28845;DHT22;15976;47.938;7.758;2023-05-09T14:24:15;24.80;47.00
28845;DHT22;15976;47.938;7.758;2023-05-09T14:26:42;24.60;47.70
28845;DHT22;15976;47.938;7.758;2023-05-09T14:29:10;24.50;48.10
28845;DHT22;15976;47.938;7.758;2023-05-09T14:31:37;24.40;48.60
28845;DHT22;15976;47.938;7.758;2023-05-09T14:34:04;24.30;49.40
28845;DHT22;15976;47.938;7.758;2023-05-09T14:36:31;24.10;50.10
28845;DHT22;15976;47.938;7.758;2023-05-09T14:38:58;23.90;51.00
28845;DHT22;15976;47.938;7.758;2023-05-09T14:41:25;23.70;52.10
28845;DHT22;15976;47.938;7.758;2023-05-09T14:43:52;23.40;53.60
28845;DHT22;15976;47.938;7.758;2023-05-09T14:46:19;22.90;55.70
28845;DHT22;15976;47.938;7.758;2023-05-09T14:48:47;22.60;57.10
28845;DHT22;15976;47.938;7.758;2023-05-09T14:51:14;22.50;58.40
28845;DHT22;15976;47.938;7.758;2023-05-09T14:53:40;22.50;58.90
28845;DHT22;15976;47.938;7.758;2023-05-09T14:56:08;22.50;59.70
28845;DHT22;15976;47.938;7.758;2023-05-09T14:58:37;22.60;60.40
28845;DHT22;15976;47.938;7.758;2023-05-09T15:01:04;22.70;59.60
28845;DHT22;15976;47.938;7.758;2023-05-09T15:03:31;22.80;59.30
28845;DHT22;15976;47.938;7.758;2023-05-09T15:05:59;22.70;58.90
28845;DHT22;15976;47.938;7.758;2023-05-09T15:08:26;22.50;58.80
28845;DHT22;15976;47.938;7.758;2023-05-09T15:10:53;22.30;59.30
28845;DHT22;15976;47.938;7.758;2023-05-09T15:13:21;22.20;59.50
28845;DHT22;15976;47.938;7.758;2023-05-09T15:15:48;22.10;59.70
28845;DHT22;15976;47.938;7.758;2023-05-09T15:18:15;22.10;59.70
28845;DHT22;15976;47.938;7.758;2023-05-09T15:20:43;22.00;59.70
28845;DHT22;15976;47.938;7.758;2023-05-09T15:23:11;22.00;60.10
28845;DHT22;15976;47.938;7.758;2023-05-09T15:25:40;21.90;61.00
28845;DHT22;15976;47.938;7.758;2023-05-09T15:28:07;21.80;61.80
28845;DHT22;15976;47.938;7.758;2023-05-09T15:30:34;21.70;62.10
28845;DHT22;15976;47.938;7.758;2023-05-09T15:33:04;21.50;62.60
28845;DHT22;15976;47.938;7.758;2023-05-09T15:35:31;21.00;66.20
28845;DHT22;15976;47.938;7.758;2023-05-09T15:37:59;20.40;69.20
28845;DHT22;15976;47.938;7.758;2023-05-09T15:40:26;19.60;71.90
28845;DHT22;15976;47.938;7.758;2023-05-09T15:42:53;18.90;74.90
28845;DHT22;15976;47.938;7.758;2023-05-09T15:45:21;18.50;77.00
28845;DHT22;15976;47.938;7.758;2023-05-09T15:47:48;18.20;79.10
28845;DHT22;15976;47.938;7.758;2023-05-09T15:50:15;18.10;80.80
28845;DHT22;15976;47.938;7.758;2023-05-09T15:52:43;18.10;80.80
28845;DHT22;15976;47.938;7.758;2023-05-09T15:55:10;18.00;82.20
28845;DHT22;15976;47.938;7.758;2023-05-09T15:57:38;17.90;83.70
28845;DHT22;15976;47.938;7.758;2023-05-09T16:00:06;18.00;84.20
28845;DHT22;15976;47.938;7.758;2023-05-09T16:02:38;18.00;84.30
28845;DHT22;15976;47.938;7.758;2023-05-09T16:05:05;18.00;85.40
28845;DHT22;15976;47.938;7.758;2023-05-09T16:07:32;18.10;84.20